Time;durP1;ratioP1;P1;durP2;ratioP2;P2;SDS_P1;SDS_P2;PMS_P1;PMS_P2;Temp;Humidity;BMP_temperature;BMP_pressure;BME280_temperature;BME280_humidity;BME280_pressure;Samples;Min_cycle;Max_cycle;Signal;HPM_P1;HPM_P2
2023/10/27 00:00:45;;;;;;;6.57;3.03;;;;;;;;;;5034336;28;20017;-79
2023/10/27 00:03:10;;;;;;;5.50;3.67;;;;;;;;;;5033598;28;20493;-78
2023/10/27 00:05:35;;;;;;;11.65;3.60;;;;;;;;;;5033793;28;20127;-78
2023/10/27 00:08:00;;;;;;;6.00;3.35;;;;;;;;;;5051523;28;20037;-78
2023/10/27 00:10:26;;;;;;;6.28;3.55;;;;;;;;;;5051551;28;20035;-78
2023/10/27 00:12:51;;;;;;;6.20;3.67;;;;;;;;;;5050739;28;20040;-78
2023/10/27 00:15:17;;;;;;;6.05;3.33;;;;;;;;;;5036745;28;20033;-78
2023/10/27 00:17:42;;;;;;;6.15;3.47;;;;;;;;;;5055481;28;20086;-77
2023/10/27 00:20:08;;;;;;;5.78;3.17;;;;;;;;;;5037515;28;20037;-76
2023/10/27 00:22:33;;;;;;;9.15;3.22;;;;;;;;;;5050510;28;20033;-77
2023/10/27 00:24:58;;;;;;;7.43;4.35;;;;;;;;;;5050082;28;20495;-79
2023/10/27 00:27:24;;;;;;;6.45;3.67;;;;;;;;;;5054182;28;20047;-79
2023/10/27 00:29:49;;;;;;;5.35;3.10;;;;;;;;;;5036285;28;20497;-79
2023/10/27 00:32:14;;;;;;;5.40;3.40;;;;;;;;;;5033113;28;20068;-78
2023/10/27 00:34:39;;;;;;;6.85;3.97;;;;;;;;;;5048379;28;20033;-79
2023/10/27 00:37:05;;;;;;;6.05;3.75;;;;;;;;;;5047767;28;20041;-77
2023/10/27 00:39:30;;;;;;;6.28;3.67;;;;;;;;;;5051010;28;20045;-78
2023/10/27 00:41:56;;;;;;;6.38;3.40;;;;;;;;;;5036004;28;20033;-79
2023/10/27 00:44:22;;;;;;;5.07;3.05;;;;;;;;;;5054363;28;20028;-78
2023/10/27 00:46:48;;;;;;;7.10;3.42;;;;;;;;;;5049086;28;20039;-77
2023/10/27 00:49:14;;;;;;;6.75;3.45;;;;;;;;;;5036552;28;20059;-78
2023/10/27 00:51:39;;;;;;;5.85;3.55;;;;;;;;;;5054346;28;20029;-78
2023/10/27 00:54:08;;;;;;;11.15;3.90;;;;;;;;;;5051255;28;20485;-78
2023/10/27 00:56:34;;;;;;;6.95;3.70;;;;;;;;;;5053857;28;20403;-78
2023/10/27 00:58:59;;;;;;;6.07;3.90;;;;;;;;;;5053751;28;20039;-78
2023/10/27 01:01:24;;;;;;;7.38;4.55;;;;;;;;;;5052623;28;20023;-78
2023/10/27 01:03:50;;;;;;;7.15;4.40;;;;;;;;;;5031536;28;20115;-78
2023/10/27 01:06:15;;;;;;;7.65;4.50;;;;;;;;;;5033199;28;20033;-79
2023/10/27 01:08:40;;;;;;;6.22;4.00;;;;;;;;;;5054478;28;20032;-78
2023/10/27 01:11:06;;;;;;;9.80;5.70;;;;;;;;;;5035017;28;20076;-78
2023/10/27 01:13:32;;;;;;;7.03;3.85;;;;;;;;;;5035916;28;20112;-77
2023/10/27 01:15:57;;;;;;;6.35;3.30;;;;;;;;;;5051411;28;20515;-77
2023/10/27 01:18:22;;;;;;;5.88;3.53;;;;;;;;;;5036270;28;20112;-78
2023/10/27 01:20:48;;;;;;;8.13;3.38;;;;;;;;;;5036015;28;20021;-78
2023/10/27 01:23:14;;;;;;;7.18;4.43;;;;;;;;;;5053814;28;20025;-77
2023/10/27 01:25:39;;;;;;;7.00;3.70;;;;;;;;;;5052182;28;20405;-78
2023/10/27 01:28:06;;;;;;;8.20;4.80;;;;;;;;;;5053783;28;20036;-78
2023/10/27 01:30:31;;;;;;;9.65;5.32;;;;;;;;;;5035590;28;20116;-77
2023/10/27 01:32:56;;;;;;;11.05;5.68;;;;;;;;;;5035736;28;20183;-78
2023/10/27 01:35:21;;;;;;;8.65;5.60;;;;;;;;;;5053648;28;20065;-79
2023/10/27 01:37:47;;;;;;;8.18;4.63;;;;;;;;;;5034997;28;20115;-78
2023/10/27 01:40:12;;;;;;;8.88;5.32;;;;;;;;;;5053762;28;20106;-78
2023/10/27 01:42:37;;;;;;;8.65;6.07;;;;;;;;;;5035906;28;20392;-77
2023/10/27 01:45:06;;;;;;;10.10;5.75;;;;;;;;;;5035266;28;20029;-78
2023/10/27 01:47:32;;;;;;;10.00;5.18;;;;;;;;;;5035782;28;20029;-78
2023/10/27 01:49:58;;;;;;;8.80;5.25;;;;;;;;;;5035573;28;20021;-77
2023/10/27 01:52:23;;;;;;;6.70;4.85;;;;;;;;;;5052618;28;20025;-78
2023/10/27 01:54:48;;;;;;;6.75;4.53;;;;;;;;;;5053249;28;20021;-78
2023/10/27 01:57:13;;;;;;;7.55;5.50;;;;;;;;;;5035445;28;20032;-78
2023/10/27 01:59:39;;;;;;;7.63;4.85;;;;;;;;;;5035226;28;20025;-77
2023/10/27 02:02:04;;;;;;;8.15;5.80;;;;;;;;;;5035313;28;20054;-78
2023/10/27 02:04:33;;;;;;;9.45;6.10;;;;;;;;;;5035030;28;20044;-78
2023/10/27 02:06:58;;;;;;;9.23;6.88;;;;;;;;;;5049679;28;20036;-78
2023/10/27 02:09:24;;;;;;;8.48;5.88;;;;;;;;;;5052957;28;20028;-77
2023/10/27 02:11:49;;;;;;;10.45;6.32;;;;;;;;;;5035134;28;20028;-77
2023/10/27 02:14:14;;;;;;;10.52;6.78;;;;;;;;;;5034653;28;20497;-77
2023/10/27 02:16:40;;;;;;;8.25;5.47;;;;;;;;;;5052757;28;20032;-77
2023/10/27 02:19:06;;;;;;;6.95;4.90;;;;;;;;;;5018468;28;20051;-78
2023/10/27 02:21:31;;;;;;;7.55;5.03;;;;;;;;;;5034715;28;20386;-77
2023/10/27 02:23:56;;;;;;;7.22;4.85;;;;;;;;;;5034276;28;20448;-78
2023/10/27 02:26:21;;;;;;;10.13;6.00;;;;;;;;;;5052759;28;20028;-78
2023/10/27 02:28:46;;;;;;;9.77;6.63;;;;;;;;;;5034562;28;20021;-77
2023/10/27 02:31:12;;;;;;;6.35;4.72;;;;;;;;;;5025767;28;20051;-78
2023/10/27 02:33:38;;;;;;;7.93;6.13;;;;;;;;;;5034285;28;20024;-77
2023/10/27 02:36:03;;;;;;;12.82;6.13;;;;;;;;;;5032536;28;20094;-78
2023/10/27 02:38:29;;;;;;;6.90;4.70;;;;;;;;;;5045428;28;20037;-78
2023/10/27 02:40:54;;;;;;;10.73;6.82;;;;;;;;;;5033802;28;20028;-78
2023/10/27 02:43:21;;;;;;;8.88;6.68;;;;;;;;;;5030976;28;20021;-78
2023/10/27 02:45:46;;;;;;;8.23;6.07;;;;;;;;;;5049179;28;20032;-78
2023/10/27 02:48:11;;;;;;;9.63;6.28;;;;;;;;;;5034203;28;20029;-78
2023/10/27 02:50:36;;;;;;;9.15;6.00;;;;;;;;;;5030242;28;20504;-79
2023/10/27 02:53:02;;;;;;;8.55;5.43;;;;;;;;;;5033937;28;20032;-78
2023/10/27 02:55:27;;;;;;;8.27;5.18;;;;;;;;;;5051420;28;20087;-78
2023/10/27 02:57:52;;;;;;;9.23;6.18;;;;;;;;;;5051742;28;20082;-79
2023/10/27 03:00:19;;;;;;;7.95;6.10;;;;;;;;;;5033653;28;20033;-78
2023/10/27 03:02:44;;;;;;;7.47;5.15;;;;;;;;;;5051588;28;20105;-78
2023/10/27 03:05:09;;;;;;;12.73;8.48;;;;;;;;;;5033458;28;20053;-78
2023/10/27 03:07:35;;;;;;;8.93;6.32;;;;;;;;;;5033884;28;20485;-78
2023/10/27 03:10:00;;;;;;;7.95;5.85;;;;;;;;;;5033870;28;20069;-77
2023/10/27 03:12:25;;;;;;;8.57;4.80;;;;;;;;;;5033568;28;20025;-78
2023/10/27 03:14:50;;;;;;;7.38;5.00;;;;;;;;;;5033589;28;20036;-78
2023/10/27 03:17:16;;;;;;;8.23;5.45;;;;;;;;;;5016396;28;20040;-78
2023/10/27 03:19:41;;;;;;;8.30;4.97;;;;;;;;;;5033377;28;20029;-78
2023/10/27 03:22:06;;;;;;;7.78;5.60;;;;;;;;;;5051255;28;20108;-78
2023/10/27 03:24:31;;;;;;;7.75;5.35;;;;;;;;;;5033218;28;20086;-78
2023/10/27 03:26:56;;;;;;;10.25;6.05;;;;;;;;;;5033376;28;20031;-78
2023/10/27 03:29:22;;;;;;;8.75;6.50;;;;;;;;;;5018522;28;20025;-78
2023/10/27 03:31:49;;;;;;;10.60;7.35;;;;;;;;;;5033345;28;20158;-78
2023/10/27 03:34:15;;;;;;;7.43;5.65;;;;;;;;;;5032724;28;20029;-78
2023/10/27 03:36:40;;;;;;;9.43;6.60;;;;;;;;;;5051050;28;20031;-78
2023/10/27 03:39:07;;;;;;;8.63;6.25;;;;;;;;;;5051299;28;20060;-78
2023/10/27 03:41:32;;;;;;;8.18;5.50;;;;;;;;;;5031203;28;20025;-78
2023/10/27 03:43:57;;;;;;;8.88;5.50;;;;;;;;;;5032814;28;20102;-78
2023/10/27 03:46:22;;;;;;;9.38;5.57;;;;;;;;;;5016801;28;20060;-78
2023/10/27 03:48:48;;;;;;;9.32;5.68;;;;;;;;;;5047038;28;20028;-78
2023/10/27 03:51:13;;;;;;;9.07;5.28;;;;;;;;;;5050809;28;20075;-78
2023/10/27 03:53:38;;;;;;;10.18;6.43;;;;;;;;;;5031154;28;20543;-78
2023/10/27 03:56:03;;;;;;;7.97;5.45;;;;;;;;;;5050261;28;20404;-78
2023/10/27 03:58:30;;;;;;;7.63;5.82;;;;;;;;;;5050902;28;20033;-78
2023/10/27 04:00:55;;;;;;;10.18;5.78;;;;;;;;;;5032869;28;20021;-78
2023/10/27 04:03:20;;;;;;;10.38;6.45;;;;;;;;;;5050137;28;20048;-78
2023/10/27 04:05:45;;;;;;;7.32;5.13;;;;;;;;;;5032928;28;20025;-78
2023/10/27 04:08:10;;;;;;;8.65;6.10;;;;;;;;;;5050710;28;20114;-78
2023/10/27 04:10:36;;;;;;;10.68;7.95;;;;;;;;;;5032883;28;20094;-78
2023/10/27 04:13:02;;;;;;;6.95;5.70;;;;;;;;;;5050726;28;20071;-78
2023/10/27 04:15:27;;;;;;;8.57;5.07;;;;;;;;;;5016031;28;20506;-78
2023/10/27 04:17:53;;;;;;;9.38;5.28;;;;;;;;;;5050223;28;20094;-78
2023/10/27 04:20:18;;;;;;;7.82;5.50;;;;;;;;;;5033529;28;20386;-78
2023/10/27 04:22:43;;;;;;;7.00;4.38;;;;;;;;;;5051812;28;20400;-78
2023/10/27 04:25:12;;;;;;;6.65;4.65;;;;;;;;;;5050181;28;20037;-78
2023/10/27 04:27:37;;;;;;;6.60;4.35;;;;;;;;;;5050940;28;20436;-78
2023/10/27 04:30:04;;;;;;;5.53;4.25;;;;;;;;;;5050080;28;20040;-78
2023/10/27 04:32:29;;;;;;;5.32;3.85;;;;;;;;;;5048318;28;20085;-77
2023/10/27 04:34:56;;;;;;;7.60;5.47;;;;;;;;;;5050505;28;20033;-77
2023/10/27 04:37:21;;;;;;;7.32;4.43;;;;;;;;;;5032337;28;20041;-77
2023/10/27 04:39:46;;;;;;;7.93;5.18;;;;;;;;;;5032841;28;20472;-78
2023/10/27 04:42:11;;;;;;;7.63;4.30;;;;;;;;;;5049726;28;20112;-77
2023/10/27 04:44:37;;;;;;;7.53;4.70;;;;;;;;;;5049927;28;20045;-77
2023/10/27 04:47:02;;;;;;;8.93;6.18;;;;;;;;;;5048282;28;20070;-77
2023/10/27 04:49:27;;;;;;;8.90;5.88;;;;;;;;;;5050182;28;20035;-78
2023/10/27 04:51:52;;;;;;;6.82;4.43;;;;;;;;;;5031154;28;20040;-77
2023/10/27 04:54:18;;;;;;;9.70;5.55;;;;;;;;;;5031647;28;20044;-79
2023/10/27 04:56:43;;;;;;;8.15;5.75;;;;;;;;;;5050068;28;20045;-78
2023/10/27 04:59:08;;;;;;;8.60;5.53;;;;;;;;;;5049217;28;20025;-78
2023/10/27 05:01:33;;;;;;;7.90;5.70;;;;;;;;;;5049845;28;20557;-78
2023/10/27 05:03:59;;;;;;;10.80;7.57;;;;;;;;;;5052988;28;20557;-78
2023/10/27 05:06:24;;;;;;;8.65;6.38;;;;;;;;;;5054506;28;20104;-78
2023/10/27 05:08:50;;;;;;;9.68;6.07;;;;;;;;;;5054546;28;20504;-78
2023/10/27 05:11:17;;;;;;;8.77;6.30;;;;;;;;;;5054358;28;20476;-79
2023/10/27 05:13:42;;;;;;;8.57;5.80;;;;;;;;;;5050886;28;20441;-78
2023/10/27 05:16:07;;;;;;;9.20;6.32;;;;;;;;;;5053945;28;20124;-78
2023/10/27 05:18:32;;;;;;;10.13;7.30;;;;;;;;;;5036814;28;20045;-78
2023/10/27 05:20:58;;;;;;;12.13;6.35;;;;;;;;;;5036370;28;20503;-78
2023/10/27 05:23:23;;;;;;;8.68;5.35;;;;;;;;;;5035166;28;20634;-77
2023/10/27 05:25:49;;;;;;;7.95;5.00;;;;;;;;;;5050701;28;20040;-78
2023/10/27 05:28:14;;;;;;;9.50;5.75;;;;;;;;;;5051301;28;20029;-78
2023/10/27 05:30:43;;;;;;;6.45;4.95;;;;;;;;;;5054165;28;20028;-78
2023/10/27 05:33:08;;;;;;;7.63;5.50;;;;;;;;;;5051381;28;20055;-77
2023/10/27 05:35:34;;;;;;;7.80;5.18;;;;;;;;;;5033974;28;20041;-78
2023/10/27 05:37:59;;;;;;;10.23;5.65;;;;;;;;;;5046396;28;20033;-77
2023/10/27 05:40:25;;;;;;;6.95;5.03;;;;;;;;;;5049950;28;20033;-78
2023/10/27 05:42:50;;;;;;;12.23;6.30;;;;;;;;;;5053519;28;20025;-78
2023/10/27 05:45:15;;;;;;;7.03;5.40;;;;;;;;;;5048116;28;20056;-77
2023/10/27 05:47:41;;;;;;;9.35;6.18;;;;;;;;;;5035299;28;20083;-77
2023/10/27 05:50:07;;;;;;;6.97;5.13;;;;;;;;;;5052421;28;20033;-77
2023/10/27 05:52:32;;;;;;;6.32;4.45;;;;;;;;;;5035385;28;20504;-78
2023/10/27 05:54:57;;;;;;;9.30;5.53;;;;;;;;;;5051072;28;20033;-77
2023/10/27 05:57:22;;;;;;;7.93;4.85;;;;;;;;;;5052830;28;20036;-77
2023/10/27 05:59:48;;;;;;;8.48;6.38;;;;;;;;;;5035278;28;20028;-77
2023/10/27 06:02:13;;;;;;;8.02;5.78;;;;;;;;;;5052193;28;20017;-77
2023/10/27 06:04:39;;;;;;;7.85;5.30;;;;;;;;;;5052815;28;20102;-78
2023/10/27 06:07:04;;;;;;;8.88;6.18;;;;;;;;;;5052890;28;20163;-77
2023/10/27 06:09:30;;;;;;;9.02;6.20;;;;;;;;;;5034829;28;20481;-78
2023/10/27 06:11:56;;;;;;;12.13;7.00;;;;;;;;;;5052626;28;20040;-78
2023/10/27 06:14:21;;;;;;;10.30;6.18;;;;;;;;;;5052622;28;20094;-78
2023/10/27 06:16:46;;;;;;;11.90;7.28;;;;;;;;;;5052666;28;20112;-78
2023/10/27 06:19:12;;;;;;;11.48;7.05;;;;;;;;;;5034715;28;20060;-78
2023/10/27 06:21:37;;;;;;;10.70;6.93;;;;;;;;;;5052684;28;20109;-77
2023/10/27 06:24:03;;;;;;;9.88;7.38;;;;;;;;;;5052354;28;20111;-77
2023/10/27 06:26:28;;;;;;;13.18;8.52;;;;;;;;;;5052453;28;20104;-77
2023/10/27 06:28:53;;;;;;;10.15;7.88;;;;;;;;;;5052218;28;20132;-77
2023/10/27 06:31:19;;;;;;;12.07;8.40;;;;;;;;;;5051713;28;20044;-78
2023/10/27 06:33:44;;;;;;;13.93;8.57;;;;;;;;;;5051876;28;20025;-77
2023/10/27 06:36:09;;;;;;;13.77;9.90;;;;;;;;;;5034203;28;20390;-78
2023/10/27 06:38:34;;;;;;;13.88;9.13;;;;;;;;;;5051889;28;20082;-78
2023/10/27 06:41:00;;;;;;;13.90;8.93;;;;;;;;;;5034449;28;20033;-78
2023/10/27 06:43:26;;;;;;;9.75;7.95;;;;;;;;;;5033082;28;20025;-78
2023/10/27 06:45:51;;;;;;;10.32;7.80;;;;;;;;;;5052097;28;20503;-78
2023/10/27 06:48:16;;;;;;;10.93;8.00;;;;;;;;;;5048801;28;20135;-78
2023/10/27 06:50:41;;;;;;;10.32;7.43;;;;;;;;;;5046277;28;20033;-77
2023/10/27 06:53:07;;;;;;;11.00;7.32;;;;;;;;;;5045593;28;20044;-77
2023/10/27 06:55:33;;;;;;;9.63;7.00;;;;;;;;;;5033244;28;20043;-78
2023/10/27 06:57:59;;;;;;;11.60;8.93;;;;;;;;;;5034483;28;20033;-78
2023/10/27 07:00:24;;;;;;;20.33;14.15;;;;;;;;;;5052544;28;20025;-78
2023/10/27 07:02:49;;;;;;;21.30;15.68;;;;;;;;;;5033501;28;20021;-77
2023/10/27 07:05:16;;;;;;;21.27;14.68;;;;;;;;;;5046592;28;20025;-77
2023/10/27 07:07:42;;;;;;;37.58;14.43;;;;;;;;;;5031558;28;20393;-77
2023/10/27 07:10:07;;;;;;;32.00;13.65;;;;;;;;;;5032310;28;20029;-77
2023/10/27 07:12:32;;;;;;;16.67;10.05;;;;;;;;;;5048388;28;20033;-77
2023/10/27 07:14:58;;;;;;;13.95;10.05;;;;;;;;;;5048310;28;20155;-77
2023/10/27 07:17:23;;;;;;;15.50;10.63;;;;;;;;;;5046220;28;20037;-78
2023/10/27 07:19:48;;;;;;;19.33;13.05;;;;;;;;;;5036927;28;20485;-77
2023/10/27 07:22:14;;;;;;;15.27;11.77;;;;;;;;;;5051459;28;20054;-78
2023/10/27 07:24:39;;;;;;;14.43;10.93;;;;;;;;;;5053219;28;20108;-78
2023/10/27 07:27:05;;;;;;;15.48;10.05;;;;;;;;;;5055541;28;20045;-78
2023/10/27 07:29:31;;;;;;;15.20;10.50;;;;;;;;;;5055651;28;20029;-78
2023/10/27 07:31:57;;;;;;;22.02;11.00;;;;;;;;;;5036683;28;20521;-78
2023/10/27 07:34:22;;;;;;;16.20;9.55;;;;;;;;;;5036682;28;20033;-78
2023/10/27 07:36:47;;;;;;;14.55;9.90;;;;;;;;;;5054619;28;20389;-78
2023/10/27 07:39:14;;;;;;;14.02;10.50;;;;;;;;;;5052169;28;20040;-78
2023/10/27 07:41:39;;;;;;;14.20;10.00;;;;;;;;;;5034546;28;20060;-77
2023/10/27 07:44:05;;;;;;;12.80;7.93;;;;;;;;;;5051834;28;20051;-78
2023/10/27 07:46:31;;;;;;;10.27;7.20;;;;;;;;;;5051098;28;20025;-78
2023/10/27 07:48:57;;;;;;;9.45;7.15;;;;;;;;;;5034473;28;20484;-77
2023/10/27 07:51:23;;;;;;;8.40;6.18;;;;;;;;;;5051632;28;20112;-78
2023/10/27 07:53:48;;;;;;;8.55;6.20;;;;;;;;;;5050376;28;20115;-78
2023/10/27 07:56:14;;;;;;;12.45;7.13;;;;;;;;;;5048766;28;20565;-78
2023/10/27 07:58:39;;;;;;;13.85;7.20;;;;;;;;;;5049844;28;20018;-77
2023/10/27 08:01:05;;;;;;;8.63;6.63;;;;;;;;;;5051902;28;20056;-78
2023/10/27 08:03:31;;;;;;;9.43;5.38;;;;;;;;;;5051940;28;20050;-77
2023/10/27 08:05:56;;;;;;;10.48;5.68;;;;;;;;;;5052007;28;20120;-78
2023/10/27 08:08:22;;;;;;;13.02;6.88;;;;;;;;;;5051873;28;20040;-78
2023/10/27 08:10:47;;;;;;;13.25;6.38;;;;;;;;;;5050409;28;20037;-77
2023/10/27 08:13:16;;;;;;;9.63;6.50;;;;;;;;;;5043849;28;20045;-78
2023/10/27 08:15:41;;;;;;;8.13;5.80;;;;;;;;;;5046602;28;20031;-77
2023/10/27 08:18:07;;;;;;;8.18;5.93;;;;;;;;;;5031710;28;20112;-77
2023/10/27 08:20:33;;;;;;;7.63;6.00;;;;;;;;;;5049749;28;20059;-77
2023/10/27 08:22:59;;;;;;;7.93;5.72;;;;;;;;;;5032956;28;20024;-77
2023/10/27 08:25:24;;;;;;;10.90;6.53;;;;;;;;;;5043503;28;20677;-77
2023/10/27 08:27:49;;;;;;;10.73;6.22;;;;;;;;;;5050640;28;20108;-77
2023/10/27 08:30:15;;;;;;;9.75;6.18;;;;;;;;;;5051324;28;20029;-77
2023/10/27 08:32:40;;;;;;;13.48;6.82;;;;;;;;;;5033643;28;20023;-78
2023/10/27 08:35:06;;;;;;;11.10;6.32;;;;;;;;;;5050890;28;20044;-77
2023/10/27 08:37:31;;;;;;;8.55;5.50;;;;;;;;;;5048128;28;20026;-77
2023/10/27 08:39:56;;;;;;;11.90;5.90;;;;;;;;;;5048172;28;20033;-78
2023/10/27 08:42:21;;;;;;;14.60;6.93;;;;;;;;;;5032431;28;20077;-77
2023/10/27 08:44:47;;;;;;;14.90;7.00;;;;;;;;;;5054768;28;20037;-77
2023/10/27 08:47:12;;;;;;;21.35;7.65;;;;;;;;;;5052405;28;20078;-77
2023/10/27 08:49:37;;;;;;;13.98;6.95;;;;;;;;;;5035958;28;20017;-78
2023/10/27 08:52:03;;;;;;;16.70;7.10;;;;;;;;;;5036561;28;20052;-77
2023/10/27 08:54:30;;;;;;;8.98;6.28;;;;;;;;;;5049422;28;20111;-77
2023/10/27 08:56:55;;;;;;;12.05;6.63;;;;;;;;;;5049365;28;20060;-77
2023/10/27 08:59:21;;;;;;;14.05;7.57;;;;;;;;;;5034886;28;20043;-77
2023/10/27 09:01:46;;;;;;;10.52;6.30;;;;;;;;;;5036551;28;20500;-77
2023/10/27 09:04:12;;;;;;;9.65;7.10;;;;;;;;;;5054182;28;20033;-78
2023/10/27 09:06:38;;;;;;;12.00;6.97;;;;;;;;;;5049326;28;20029;-77
2023/10/27 09:09:05;;;;;;;16.10;11.23;;;;;;;;;;5033282;28;20043;-78
2023/10/27 09:11:41;;;;;;;10.95;8.00;;;;;;;;;;5054036;28;20547;-77
2023/10/27 09:14:23;;;;;;;12.15;7.50;;;;;;;;;;5053993;28;20500;-78
2023/10/27 09:16:48;;;;;;;11.88;8.27;;;;;;;;;;5033726;28;20079;-77
2023/10/27 09:19:18;;;;;;;11.48;8.30;;;;;;;;;;5036164;28;20025;-77
2023/10/27 09:21:45;;;;;;;12.30;8.40;;;;;;;;;;5053932;28;20099;-77
2023/10/27 09:24:10;;;;;;;10.05;7.45;;;;;;;;;;5047431;28;20044;-77
2023/10/27 09:26:46;;;;;;;11.57;7.78;;;;;;;;;;5052709;28;20071;-78
2023/10/27 09:29:11;;;;;;;12.38;8.90;;;;;;;;;;5051455;28;20510;-78
2023/10/27 09:31:36;;;;;;;10.80;7.53;;;;;;;;;;5053489;28;20033;-78
2023/10/27 09:34:17;;;;;;;11.50;7.30;;;;;;;;;;5020591;28;20037;-78
2023/10/27 09:36:44;;;;;;;13.20;8.80;;;;;;;;;;5034189;28;20043;-78
2023/10/27 09:39:09;;;;;;;12.68;8.68;;;;;;;;;;5053435;28;20275;-77
2023/10/27 09:41:36;;;;;;;12.55;8.35;;;;;;;;;;5053413;28;20051;-77
2023/10/27 09:44:01;;;;;;;13.07;8.25;;;;;;;;;;5053319;28;20089;-78
2023/10/27 09:46:27;;;;;;;11.75;7.82;;;;;;;;;;5051674;28;20040;-77
2023/10/27 09:48:58;;;;;;;10.13;7.40;;;;;;;;;;5049201;28;20029;-77
2023/10/27 09:51:24;;;;;;;12.75;8.27;;;;;;;;;;5026069;28;20036;-77
2023/10/27 09:53:50;;;;;;;14.38;7.85;;;;;;;;;;5032876;28;20104;-77
2023/10/27 09:56:17;;;;;;;12.75;8.15;;;;;;;;;;5032380;28;20560;-77
2023/10/27 09:58:43;;;;;;;9.75;7.28;;;;;;;;;;5053166;28;20032;-77
2023/10/27 10:01:10;;;;;;;10.50;7.78;;;;;;;;;;5052856;28;20060;-77
2023/10/27 10:03:40;;;;;;;10.80;7.60;;;;;;;;;;5048177;28;20043;-80
2023/10/27 10:06:12;;;;;;;11.35;8.43;;;;;;;;;;5048802;28;20424;-77
2023/10/27 10:08:37;;;;;;;;;;;;;;;;;;5052151;28;20037;-77
2023/10/27 10:11:13;;;;;;;12.65;8.60;;;;;;;;;;5035068;28;19915;-78
2023/10/27 10:13:38;;;;;;;13.38;8.15;;;;;;;;;;5048642;28;20066;-77
2023/10/27 10:16:03;;;;;;;11.50;8.20;;;;;;;;;;5049092;28;20041;-77
2023/10/27 10:18:35;;;;;;;11.52;6.93;;;;;;;;;;5046626;28;20032;-78
2023/10/27 10:21:01;;;;;;;10.40;8.07;;;;;;;;;;5050101;28;20029;-77
2023/10/27 10:23:40;;;;;;;12.40;8.60;;;;;;;;;;5052299;28;20021;-77
2023/10/27 10:26:05;;;;;;;10.23;7.03;;;;;;;;;;5052160;28;20047;-78
2023/10/27 10:28:34;;;;;;;10.75;7.60;;;;;;;;;;5034836;28;20107;-78
2023/10/27 10:31:17;;;;;;;11.30;7.88;;;;;;;;;;5016314;28;20025;-77
2023/10/27 10:33:44;;;;;;;9.18;7.07;;;;;;;;;;5053424;28;20029;-78
2023/10/27 10:36:22;;;;;;;10.10;7.53;;;;;;;;;;5050667;28;20040;-78
2023/10/27 10:38:55;;;;;;;11.10;7.30;;;;;;;;;;5049443;28;20063;-78
2023/10/27 10:41:20;;;;;;;8.25;6.00;;;;;;;;;;5053608;28;20103;-78
2023/10/27 10:44:06;;;;;;;10.25;7.93;;;;;;;;;;5052148;28;20056;-77
2023/10/27 10:46:31;;;;;;;9.55;6.53;;;;;;;;;;5044368;28;20076;-78
2023/10/27 10:48:56;;;;;;;10.40;7.40;;;;;;;;;;5051833;28;20033;-78
2023/10/27 10:51:36;;;;;;;9.32;6.93;;;;;;;;;;5037996;28;20086;-78
2023/10/27 10:54:01;;;;;;;9.50;6.50;;;;;;;;;;5052526;28;20397;-77
2023/10/27 10:56:27;;;;;;;11.48;7.70;;;;;;;;;;5032230;28;20024;-76
2023/10/27 10:58:53;;;;;;;13.88;9.95;;;;;;;;;;5051152;28;20051;-77
2023/10/27 11:01:19;;;;;;;12.23;8.43;;;;;;;;;;5051799;28;20033;-77
2023/10/27 11:03:49;;;;;;;8.25;6.65;;;;;;;;;;5038877;28;20385;-77
2023/10/27 11:06:17;;;;;;;12.45;8.05;;;;;;;;;;5047983;28;20032;-77
2023/10/27 11:08:43;;;;;;;12.15;8.40;;;;;;;;;;5051733;28;20055;-77
2023/10/27 11:11:09;;;;;;;13.05;8.98;;;;;;;;;;5052605;28;20485;-77
2023/10/27 11:13:41;;;;;;;11.70;8.40;;;;;;;;;;5033967;28;20082;-77
2023/10/27 11:16:12;;;;;;;9.40;6.97;;;;;;;;;;5052173;28;20039;-77
2023/10/27 11:18:37;;;;;;;9.82;7.03;;;;;;;;;;5051994;28;20024;-77
2023/10/27 11:21:03;;;;;;;10.77;6.70;;;;;;;;;;5052100;28;20039;-77
2023/10/27 11:23:28;;;;;;;8.90;6.72;;;;;;;;;;5052029;28;20028;-77
2023/10/27 11:26:00;;;;;;;8.63;6.38;;;;;;;;;;5047819;28;20124;-77
2023/10/27 11:28:26;;;;;;;8.05;6.22;;;;;;;;;;5048394;28;20053;-77
2023/10/27 11:31:19;;;;;;;7.57;6.18;;;;;;;;;;5052086;28;20027;-77
2023/10/27 11:34:03;;;;;;;7.78;5.57;;;;;;;;;;5048834;28;20033;-78
2023/10/27 11:36:33;;;;;;;7.50;5.55;;;;;;;;;;5051591;28;20036;-77
2023/10/27 11:39:14;;;;;;;8.68;6.40;;;;;;;;;;5048044;28;20417;-77
2023/10/27 11:41:40;;;;;;;10.50;6.63;;;;;;;;;;5049509;28;20035;-77
2023/10/27 11:44:05;;;;;;;7.28;5.70;;;;;;;;;;5051884;28;20397;-77
2023/10/27 11:46:32;;;;;;;7.30;5.72;;;;;;;;;;5033710;28;20036;-77
2023/10/27 11:48:57;;;;;;;7.63;4.90;;;;;;;;;;5033564;28;20511;-77
2023/10/27 11:51:22;;;;;;;9.98;6.18;;;;;;;;;;5050730;28;20064;-77
2023/10/27 11:53:48;;;;;;;7.43;5.40;;;;;;;;;;5033101;28;20116;-77
2023/10/27 11:56:13;;;;;;;7.20;4.97;;;;;;;;;;5050447;28;20043;-77
2023/10/27 11:58:41;;;;;;;7.63;5.35;;;;;;;;;;5051248;28;20083;-77
2023/10/27 12:01:07;;;;;;;9.55;6.38;;;;;;;;;;5050195;28;20029;-77
2023/10/27 12:03:32;;;;;;;9.15;6.70;;;;;;;;;;5048817;28;20477;-77
2023/10/27 12:05:57;;;;;;;10.23;6.63;;;;;;;;;;5050903;28;20044;-77
2023/10/27 12:08:23;;;;;;;9.70;6.88;;;;;;;;;;5041668;28;20491;-77
2023/10/27 12:10:54;;;;;;;10.68;7.35;;;;;;;;;;5050958;28;20091;-77
2023/10/27 12:13:20;;;;;;;10.75;6.88;;;;;;;;;;5050467;28;20060;-77
2023/10/27 12:15:46;;;;;;;11.05;7.50;;;;;;;;;;5050970;28;20033;-77
2023/10/27 12:18:11;;;;;;;10.77;6.43;;;;;;;;;;5054862;28;20535;-76
2023/10/27 12:20:38;;;;;;;9.88;7.05;;;;;;;;;;5054568;28;20370;-76
2023/10/27 12:23:05;;;;;;;11.52;7.10;;;;;;;;;;5052702;28;20036;-76
2023/10/27 12:25:30;;;;;;;9.52;6.97;;;;;;;;;;5029467;28;20033;-75
2023/10/27 12:27:56;;;;;;;10.32;7.10;;;;;;;;;;5054469;28;20025;-75
2023/10/27 12:30:23;;;;;;;12.85;8.68;;;;;;;;;;5054114;28;20029;-76
2023/10/27 12:32:49;;;;;;;15.40;9.85;;;;;;;;;;5054110;28;20029;-76
2023/10/27 12:35:14;;;;;;;12.77;9.05;;;;;;;;;;5051944;28;20025;-74
2023/10/27 12:37:39;;;;;;;13.57;10.38;;;;;;;;;;5045942;28;20482;-75
2023/10/27 12:40:06;;;;;;;13.80;9.90;;;;;;;;;;5050507;28;20435;-75
2023/10/27 12:42:31;;;;;;;13.75;11.10;;;;;;;;;;5053608;28;20064;-75
2023/10/27 12:44:57;;;;;;;11.65;8.82;;;;;;;;;;5053085;28;20048;-75
2023/10/27 12:47:22;;;;;;;11.82;8.70;;;;;;;;;;5033944;28;20091;-75
2023/10/27 12:49:48;;;;;;;10.18;7.53;;;;;;;;;;5052339;28;20021;-75
2023/10/27 12:52:14;;;;;;;10.43;8.75;;;;;;;;;;5053865;28;20067;-76
2023/10/27 12:54:39;;;;;;;10.27;7.70;;;;;;;;;;5052241;28;20033;-75
2023/10/27 12:57:04;;;;;;;10.57;7.90;;;;;;;;;;5053920;28;20030;-75
2023/10/27 12:59:30;;;;;;;11.82;7.57;;;;;;;;;;5035947;28;20468;-76
2023/10/27 13:01:55;;;;;;;10.52;7.60;;;;;;;;;;5053329;28;20029;-75
2023/10/27 13:04:20;;;;;;;9.07;7.03;;;;;;;;;;5035059;28;20393;-75
2023/10/27 13:06:46;;;;;;;8.80;6.55;;;;;;;;;;5053767;28;20040;-76
2023/10/27 13:09:11;;;;;;;10.25;7.05;;;;;;;;;;5053748;28;20405;-76
2023/10/27 13:11:37;;;;;;;13.13;9.80;;;;;;;;;;5052618;28;20033;-74
2023/10/27 13:14:02;;;;;;;11.38;8.55;;;;;;;;;;5053539;28;20033;-76
2023/10/27 13:16:28;;;;;;;9.18;6.28;;;;;;;;;;5053425;28;21246;-75
2023/10/27 13:18:53;;;;;;;6.97;5.00;;;;;;;;;;5035836;28;20036;-76
2023/10/27 13:21:18;;;;;;;6.88;4.55;;;;;;;;;;5052482;28;20032;-76
2023/10/27 13:23:44;;;;;;;6.97;5.15;;;;;;;;;;5052355;28;20052;-76
2023/10/27 13:26:09;;;;;;;10.75;6.32;;;;;;;;;;5034990;28;20036;-76
2023/10/27 13:28:34;;;;;;;8.55;6.10;;;;;;;;;;5053082;28;20117;-76
2023/10/27 13:31:00;;;;;;;11.27;8.15;;;;;;;;;;5052400;28;20063;-76
2023/10/27 13:33:25;;;;;;;13.32;9.18;;;;;;;;;;5028831;28;20040;-75
2023/10/27 13:35:58;;;;;;;9.35;7.90;;;;;;;;;;5048569;28;20025;-76
2023/10/27 13:38:23;;;;;;;8.80;6.50;;;;;;;;;;5042600;28;20158;-76
2023/10/27 13:40:49;;;;;;;9.63;7.45;;;;;;;;;;5051758;28;20021;-76
2023/10/27 13:43:16;;;;;;;10.27;8.00;;;;;;;;;;5051612;28;20532;-76
2023/10/27 13:45:42;;;;;;;9.77;6.93;;;;;;;;;;5045570;28;20030;-76
2023/10/27 13:48:08;;;;;;;9.13;6.78;;;;;;;;;;5047333;28;20028;-75
2023/10/27 13:50:34;;;;;;;9.65;7.93;;;;;;;;;;5031813;28;20021;-76
2023/10/27 13:52:59;;;;;;;9.20;7.55;;;;;;;;;;5051045;28;20370;-74
2023/10/27 13:55:24;;;;;;;8.68;6.13;;;;;;;;;;5051222;28;20546;-75
2023/10/27 13:57:49;;;;;;;10.48;6.65;;;;;;;;;;5049975;28;20029;-75
2023/10/27 14:00:15;;;;;;;12.90;9.77;;;;;;;;;;5032528;28;20382;-76
2023/10/27 14:02:41;;;;;;;11.38;9.18;;;;;;;;;;5049754;28;20098;-76
2023/10/27 14:05:06;;;;;;;10.23;7.97;;;;;;;;;;5034465;28;20167;-77
2023/10/27 14:07:32;;;;;;;10.85;7.70;;;;;;;;;;5048512;28;20063;-76
2023/10/27 14:09:57;;;;;;;13.73;8.82;;;;;;;;;;5052439;28;20037;-77
2023/10/27 14:12:22;;;;;;;9.93;8.25;;;;;;;;;;5048574;28;20028;-76
2023/10/27 14:14:47;;;;;;;12.73;8.80;;;;;;;;;;5046235;28;20108;-75
2023/10/27 14:17:13;;;;;;;11.82;9.35;;;;;;;;;;5047472;28;20032;-76
2023/10/27 14:19:38;;;;;;;11.60;9.20;;;;;;;;;;5051912;28;20390;-75
2023/10/27 14:22:04;;;;;;;11.48;8.90;;;;;;;;;;5052118;28;20057;-75
2023/10/27 14:24:29;;;;;;;10.85;9.18;;;;;;;;;;5051802;28;20120;-76
2023/10/27 14:26:54;;;;;;;12.63;9.77;;;;;;;;;;5051741;28;20029;-75
2023/10/27 14:29:21;;;;;;;11.73;9.32;;;;;;;;;;5051847;28;20552;-74